sensor_id;sensor_type;location;lat;lon;timestamp;pressure;altitude;pressure_sealevel;temperature
20058;BMP180;10189;49.546;7.906;2023-07-20T00:01:49;98027.00;;;17.70
20058;BMP180;10189;49.546;7.906;2023-07-20T00:04:15;98039.00;;;17.70
20058;BMP180;10189;49.546;7.906;2023-07-20T00:06:41;98031.00;;;17.60
20058;BMP180;10189;49.546;7.906;2023-07-20T00:09:09;98041.00;;;17.50
20058;BMP180;10189;49.546;7.906;2023-07-20T00:11:37;98033.00;;;17.40
20058;BMP180;10189;49.546;7.906;2023-07-20T00:14:05;98026.00;;;17.30
20058;BMP180;10189;49.546;7.906;2023-07-20T00:16:32;98036.00;;;17.30
20058;BMP180;10189;49.546;7.906;2023-07-20T00:18:58;98042.00;;;17.20
20058;BMP180;10189;49.546;7.906;2023-07-20T00:21:24;98047.00;;;17.20
20058;BMP180;10189;49.546;7.906;2023-07-20T00:23:50;98041.00;;;17.10
20058;BMP180;10189;49.546;7.906;2023-07-20T00:26:16;98035.00;;;17.00
20058;BMP180;10189;49.546;7.906;2023-07-20T00:28:42;98040.00;;;16.90
20058;BMP180;10189;49.546;7.906;2023-07-20T00:31:09;98034.00;;;16.90
20058;BMP180;10189;49.546;7.906;2023-07-20T00:33:36;98030.00;;;16.80
20058;BMP180;10189;49.546;7.906;2023-07-20T00:36:02;98036.00;;;16.70
20058;BMP180;10189;49.546;7.906;2023-07-20T00:38:28;98045.00;;;16.60
20058;BMP180;10189;49.546;7.906;2023-07-20T00:40:53;98035.00;;;16.60
20058;BMP180;10189;49.546;7.906;2023-07-20T00:43:19;98044.00;;;16.60
20058;BMP180;10189;49.546;7.906;2023-07-20T00:45:45;98043.00;;;16.50
20058;BMP180;10189;49.546;7.906;2023-07-20T00:48:13;98044.00;;;16.50
20058;BMP180;10189;49.546;7.906;2023-07-20T00:50:40;98044.00;;;16.30
20058;BMP180;10189;49.546;7.906;2023-07-20T00:53:07;98034.00;;;16.30
20058;BMP180;10189;49.546;7.906;2023-07-20T00:55:33;98042.00;;;16.20
20058;BMP180;10189;49.546;7.906;2023-07-20T00:58:00;98041.00;;;16.20
20058;BMP180;10189;49.546;7.906;2023-07-20T01:00:26;98046.00;;;16.10
20058;BMP180;10189;49.546;7.906;2023-07-20T01:02:53;98039.00;;;16.00
20058;BMP180;10189;49.546;7.906;2023-07-20T01:05:21;98038.00;;;16.00
20058;BMP180;10189;49.546;7.906;2023-07-20T01:07:58;98038.00;;;15.90
20058;BMP180;10189;49.546;7.906;2023-07-20T01:10:54;98034.00;;;15.80
20058;BMP180;10189;49.546;7.906;2023-07-20T01:13:23;98045.00;;;15.90
20058;BMP180;10189;49.546;7.906;2023-07-20T01:16:01;98041.00;;;15.80
20058;BMP180;10189;49.546;7.906;2023-07-20T01:18:27;98039.00;;;15.80
20058;BMP180;10189;49.546;7.906;2023-07-20T01:21:09;98038.00;;;15.70
20058;BMP180;10189;49.546;7.906;2023-07-20T01:26:54;98038.00;;;15.60
20058;BMP180;10189;49.546;7.906;2023-07-20T01:29:58;98041.00;;;15.50
20058;BMP180;10189;49.546;7.906;2023-07-20T01:32:31;98046.00;;;15.50
20058;BMP180;10189;49.546;7.906;2023-07-20T01:34:59;98041.00;;;15.40
20058;BMP180;10189;49.546;7.906;2023-07-20T01:37:26;98042.00;;;15.40
20058;BMP180;10189;49.546;7.906;2023-07-20T01:39:54;98042.00;;;15.30
20058;BMP180;10189;49.546;7.906;2023-07-20T01:42:24;98039.00;;;15.30
20058;BMP180;10189;49.546;7.906;2023-07-20T01:44:51;98034.00;;;15.30
20058;BMP180;10189;49.546;7.906;2023-07-20T01:47:23;98037.00;;;15.30
20058;BMP180;10189;49.546;7.906;2023-07-20T01:49:49;98037.00;;;15.30
20058;BMP180;10189;49.546;7.906;2023-07-20T01:52:15;98028.00;;;15.30
20058;BMP180;10189;49.546;7.906;2023-07-20T01:54:41;98031.00;;;15.20
20058;BMP180;10189;49.546;7.906;2023-07-20T01:57:07;98032.00;;;15.10
20058;BMP180;10189;49.546;7.906;2023-07-20T01:59:32;98028.00;;;15.10
20058;BMP180;10189;49.546;7.906;2023-07-20T02:01:58;98029.00;;;15.10
20058;BMP180;10189;49.546;7.906;2023-07-20T02:04:24;98029.00;;;15.10
20058;BMP180;10189;49.546;7.906;2023-07-20T02:06:50;98034.00;;;15.00
20058;BMP180;10189;49.546;7.906;2023-07-20T02:09:16;98022.00;;;14.90
20058;BMP180;10189;49.546;7.906;2023-07-20T02:11:42;98023.00;;;14.90
20058;BMP180;10189;49.546;7.906;2023-07-20T02:14:07;98023.00;;;14.90
20058;BMP180;10189;49.546;7.906;2023-07-20T02:16:33;98015.00;;;14.90
20058;BMP180;10189;49.546;7.906;2023-07-20T02:18:59;98022.00;;;14.80
20058;BMP180;10189;49.546;7.906;2023-07-20T02:21:25;98018.00;;;14.80
20058;BMP180;10189;49.546;7.906;2023-07-20T02:23:51;98017.00;;;14.80
20058;BMP180;10189;49.546;7.906;2023-07-20T02:26:17;98026.00;;;14.70
20058;BMP180;10189;49.546;7.906;2023-07-20T02:28:43;98026.00;;;14.70
20058;BMP180;10189;49.546;7.906;2023-07-20T02:31:08;98022.00;;;14.70
20058;BMP180;10189;49.546;7.906;2023-07-20T02:33:34;98023.00;;;14.70
20058;BMP180;10189;49.546;7.906;2023-07-20T02:36:00;98018.00;;;14.60
20058;BMP180;10189;49.546;7.906;2023-07-20T02:38:26;98028.00;;;14.60
20058;BMP180;10189;49.546;7.906;2023-07-20T02:40:52;98029.00;;;14.60
20058;BMP180;10189;49.546;7.906;2023-07-20T02:43:18;98038.00;;;14.50
20058;BMP180;10189;49.546;7.906;2023-07-20T02:45:45;98034.00;;;14.40
20058;BMP180;10189;49.546;7.906;2023-07-20T02:48:11;98036.00;;;14.40
20058;BMP180;10189;49.546;7.906;2023-07-20T02:50:36;98028.00;;;14.40
20058;BMP180;10189;49.546;7.906;2023-07-20T02:53:03;98039.00;;;14.40
20058;BMP180;10189;49.546;7.906;2023-07-20T02:55:29;98040.00;;;14.40
20058;BMP180;10189;49.546;7.906;2023-07-20T02:57:54;98035.00;;;14.40
20058;BMP180;10189;49.546;7.906;2023-07-20T03:00:20;98030.00;;;14.40
20058;BMP180;10189;49.546;7.906;2023-07-20T03:02:48;98034.00;;;14.40
20058;BMP180;10189;49.546;7.906;2023-07-20T03:05:16;98041.00;;;14.40
20058;BMP180;10189;49.546;7.906;2023-07-20T03:07:42;98043.00;;;14.40
20058;BMP180;10189;49.546;7.906;2023-07-20T03:10:09;98038.00;;;14.40
20058;BMP180;10189;49.546;7.906;2023-07-20T03:12:36;98038.00;;;14.40
20058;BMP180;10189;49.546;7.906;2023-07-20T03:15:03;98033.00;;;14.30
20058;BMP180;10189;49.546;7.906;2023-07-20T03:17:29;98040.00;;;14.40
20058;BMP180;10189;49.546;7.906;2023-07-20T03:19:56;98040.00;;;14.30
20058;BMP180;10189;49.546;7.906;2023-07-20T03:22:22;98046.00;;;14.30
20058;BMP180;10189;49.546;7.906;2023-07-20T03:24:50;98037.00;;;14.30
20058;BMP180;10189;49.546;7.906;2023-07-20T03:27:16;98042.00;;;14.30
20058;BMP180;10189;49.546;7.906;2023-07-20T03:29:43;98039.00;;;14.40
20058;BMP180;10189;49.546;7.906;2023-07-20T03:32:10;98047.00;;;14.40
20058;BMP180;10189;49.546;7.906;2023-07-20T03:34:37;98042.00;;;14.40
20058;BMP180;10189;49.546;7.906;2023-07-20T03:37:03;98051.00;;;14.40
20058;BMP180;10189;49.546;7.906;2023-07-20T03:39:30;98049.00;;;14.50
20058;BMP180;10189;49.546;7.906;2023-07-20T03:41:58;98054.00;;;14.50
20058;BMP180;10189;49.546;7.906;2023-07-20T03:44:25;98046.00;;;14.60
20058;BMP180;10189;49.546;7.906;2023-07-20T03:46:50;98046.00;;;14.60
20058;BMP180;10189;49.546;7.906;2023-07-20T03:49:16;98051.00;;;14.60
20058;BMP180;10189;49.546;7.906;2023-07-20T03:51:43;98045.00;;;14.60
20058;BMP180;10189;49.546;7.906;2023-07-20T03:54:09;98052.00;;;14.60
20058;BMP180;10189;49.546;7.906;2023-07-20T03:56:35;98058.00;;;14.70
20058;BMP180;10189;49.546;7.906;2023-07-20T03:59:01;98051.00;;;14.70
20058;BMP180;10189;49.546;7.906;2023-07-20T04:01:28;98051.00;;;14.70
20058;BMP180;10189;49.546;7.906;2023-07-20T04:03:53;98043.00;;;14.80
20058;BMP180;10189;49.546;7.906;2023-07-20T04:06:19;98043.00;;;14.70
20058;BMP180;10189;49.546;7.906;2023-07-20T04:08:45;98045.00;;;14.70
20058;BMP180;10189;49.546;7.906;2023-07-20T04:11:13;98048.00;;;14.80
20058;BMP180;10189;49.546;7.906;2023-07-20T04:13:39;98044.00;;;14.80
20058;BMP180;10189;49.546;7.906;2023-07-20T04:16:05;98048.00;;;14.80
20058;BMP180;10189;49.546;7.906;2023-07-20T04:18:31;98040.00;;;14.80
20058;BMP180;10189;49.546;7.906;2023-07-20T04:20:57;98048.00;;;14.80
20058;BMP180;10189;49.546;7.906;2023-07-20T04:23:23;98039.00;;;14.90
20058;BMP180;10189;49.546;7.906;2023-07-20T04:25:50;98044.00;;;14.90
20058;BMP180;10189;49.546;7.906;2023-07-20T04:28:17;98046.00;;;15.00
20058;BMP180;10189;49.546;7.906;2023-07-20T04:30:49;98050.00;;;15.00
20058;BMP180;10189;49.546;7.906;2023-07-20T04:33:19;98043.00;;;15.00
20058;BMP180;10189;49.546;7.906;2023-07-20T04:35:50;98045.00;;;15.10
20058;BMP180;10189;49.546;7.906;2023-07-20T04:38:20;98047.00;;;15.10
20058;BMP180;10189;49.546;7.906;2023-07-20T04:40:50;98046.00;;;15.20
20058;BMP180;10189;49.546;7.906;2023-07-20T04:43:17;98045.00;;;15.50
20058;BMP180;10189;49.546;7.906;2023-07-20T04:45:44;98051.00;;;15.70
20058;BMP180;10189;49.546;7.906;2023-07-20T04:48:13;98051.00;;;16.00
20058;BMP180;10189;49.546;7.906;2023-07-20T04:50:45;98037.00;;;16.10
20058;BMP180;10189;49.546;7.906;2023-07-20T04:53:12;98036.00;;;16.40
20058;BMP180;10189;49.546;7.906;2023-07-20T04:55:40;98031.00;;;16.60
20058;BMP180;10189;49.546;7.906;2023-07-20T04:58:07;98026.00;;;16.90
20058;BMP180;10189;49.546;7.906;2023-07-20T05:00:37;98028.00;;;17.10
20058;BMP180;10189;49.546;7.906;2023-07-20T05:03:03;98015.00;;;17.40
20058;BMP180;10189;49.546;7.906;2023-07-20T05:05:31;98028.00;;;17.70
20058;BMP180;10189;49.546;7.906;2023-07-20T05:07:57;98014.00;;;17.90
20058;BMP180;10189;49.546;7.906;2023-07-20T05:10:24;98018.00;;;18.00
20058;BMP180;10189;49.546;7.906;2023-07-20T05:12:49;98018.00;;;18.30
20058;BMP180;10189;49.546;7.906;2023-07-20T05:15:15;98025.00;;;18.50
20058;BMP180;10189;49.546;7.906;2023-07-20T05:17:42;98016.00;;;18.70
20058;BMP180;10189;49.546;7.906;2023-07-20T05:20:08;98022.00;;;18.70
20058;BMP180;10189;49.546;7.906;2023-07-20T05:22:38;98027.00;;;18.60
20058;BMP180;10189;49.546;7.906;2023-07-20T05:25:07;98024.00;;;18.80
20058;BMP180;10189;49.546;7.906;2023-07-20T05:27:36;98021.00;;;18.90
20058;BMP180;10189;49.546;7.906;2023-07-20T05:30:02;98022.00;;;19.10
20058;BMP180;10189;49.546;7.906;2023-07-20T05:32:29;98015.00;;;19.30
20058;BMP180;10189;49.546;7.906;2023-07-20T05:34:55;98014.00;;;19.20
20058;BMP180;10189;49.546;7.906;2023-07-20T05:37:21;98008.00;;;19.30
20058;BMP180;10189;49.546;7.906;2023-07-20T05:39:47;98022.00;;;19.50
20058;BMP180;10189;49.546;7.906;2023-07-20T05:42:13;98009.00;;;19.50
20058;BMP180;10189;49.546;7.906;2023-07-20T05:44:40;98013.00;;;19.40
20058;BMP180;10189;49.546;7.906;2023-07-20T05:47:07;98015.00;;;19.60
20058;BMP180;10189;49.546;7.906;2023-07-20T05:49:34;98018.00;;;19.60
20058;BMP180;10189;49.546;7.906;2023-07-20T05:52:00;98027.00;;;19.70
20058;BMP180;10189;49.546;7.906;2023-07-20T05:54:27;98026.00;;;19.80
20058;BMP180;10189;49.546;7.906;2023-07-20T05:56:53;98023.00;;;19.90
20058;BMP180;10189;49.546;7.906;2023-07-20T05:59:19;98017.00;;;20.00
20058;BMP180;10189;49.546;7.906;2023-07-20T06:01:46;98014.00;;;20.00
20058;BMP180;10189;49.546;7.906;2023-07-20T06:04:14;98017.00;;;20.10
20058;BMP180;10189;49.546;7.906;2023-07-20T06:06:40;98025.00;;;20.20
20058;BMP180;10189;49.546;7.906;2023-07-20T06:09:06;98021.00;;;20.20
20058;BMP180;10189;49.546;7.906;2023-07-20T06:11:35;98023.00;;;20.50
20058;BMP180;10189;49.546;7.906;2023-07-20T06:14:02;98013.00;;;20.80
20058;BMP180;10189;49.546;7.906;2023-07-20T06:16:28;98018.00;;;20.90
20058;BMP180;10189;49.546;7.906;2023-07-20T06:18:54;98028.00;;;21.00
20058;BMP180;10189;49.546;7.906;2023-07-20T06:21:19;98015.00;;;21.30
20058;BMP180;10189;49.546;7.906;2023-07-20T06:23:45;98023.00;;;21.40
20058;BMP180;10189;49.546;7.906;2023-07-20T06:26:11;98027.00;;;21.00
20058;BMP180;10189;49.546;7.906;2023-07-20T06:28:37;98026.00;;;21.00
20058;BMP180;10189;49.546;7.906;2023-07-20T06:31:04;98021.00;;;21.10
20058;BMP180;10189;49.546;7.906;2023-07-20T06:33:30;98025.00;;;21.10
20058;BMP180;10189;49.546;7.906;2023-07-20T06:35:56;98023.00;;;21.00
20058;BMP180;10189;49.546;7.906;2023-07-20T06:38:24;98015.00;;;21.10
20058;BMP180;10189;49.546;7.906;2023-07-20T06:40:51;98016.00;;;21.30
20058;BMP180;10189;49.546;7.906;2023-07-20T06:43:17;98021.00;;;21.50
20058;BMP180;10189;49.546;7.906;2023-07-20T06:45:43;98017.00;;;21.50
20058;BMP180;10189;49.546;7.906;2023-07-20T06:48:09;98021.00;;;21.50
20058;BMP180;10189;49.546;7.906;2023-07-20T06:50:35;98013.00;;;21.50
20058;BMP180;10189;49.546;7.906;2023-07-20T06:53:01;98009.00;;;21.60
20058;BMP180;10189;49.546;7.906;2023-07-20T06:55:29;98013.00;;;21.70
20058;BMP180;10189;49.546;7.906;2023-07-20T06:57:55;98026.00;;;21.70
20058;BMP180;10189;49.546;7.906;2023-07-20T07:00:21;98017.00;;;21.80
20058;BMP180;10189;49.546;7.906;2023-07-20T07:02:47;98011.00;;;21.90
20058;BMP180;10189;49.546;7.906;2023-07-20T07:05:13;98015.00;;;21.90
20058;BMP180;10189;49.546;7.906;2023-07-20T07:07:41;98017.00;;;22.10
20058;BMP180;10189;49.546;7.906;2023-07-20T07:10:08;98006.00;;;22.20
20058;BMP180;10189;49.546;7.906;2023-07-20T07:12:34;98022.00;;;22.40
20058;BMP180;10189;49.546;7.906;2023-07-20T07:15:05;98016.00;;;22.50
20058;BMP180;10189;49.546;7.906;2023-07-20T07:17:34;98025.00;;;22.40
20058;BMP180;10189;49.546;7.906;2023-07-20T07:20:00;98023.00;;;22.20
20058;BMP180;10189;49.546;7.906;2023-07-20T07:22:26;98015.00;;;22.30
20058;BMP180;10189;49.546;7.906;2023-07-20T07:24:52;98024.00;;;22.50
20058;BMP180;10189;49.546;7.906;2023-07-20T07:27:18;98022.00;;;22.40
20058;BMP180;10189;49.546;7.906;2023-07-20T07:29:44;98018.00;;;22.10
20058;BMP180;10189;49.546;7.906;2023-07-20T07:32:10;98027.00;;;22.20
20058;BMP180;10189;49.546;7.906;2023-07-20T07:34:37;98015.00;;;22.20
20058;BMP180;10189;49.546;7.906;2023-07-20T07:37:06;98016.00;;;22.10
20058;BMP180;10189;49.546;7.906;2023-07-20T07:39:32;98015.00;;;22.10
20058;BMP180;10189;49.546;7.906;2023-07-20T07:41:58;98021.00;;;22.50
20058;BMP180;10189;49.546;7.906;2023-07-20T07:44:24;98018.00;;;22.80
20058;BMP180;10189;49.546;7.906;2023-07-20T07:46:50;98022.00;;;22.90
20058;BMP180;10189;49.546;7.906;2023-07-20T07:49:17;98026.00;;;22.80
20058;BMP180;10189;49.546;7.906;2023-07-20T07:51:44;98026.00;;;22.50
20058;BMP180;10189;49.546;7.906;2023-07-20T07:54:10;98024.00;;;22.80
20058;BMP180;10189;49.546;7.906;2023-07-20T07:56:36;98024.00;;;22.60
20058;BMP180;10189;49.546;7.906;2023-07-20T07:59:02;98029.00;;;22.30
20058;BMP180;10189;49.546;7.906;2023-07-20T08:01:29;98031.00;;;22.60
20058;BMP180;10189;49.546;7.906;2023-07-20T08:03:55;98029.00;;;22.70
20058;BMP180;10189;49.546;7.906;2023-07-20T08:06:21;98036.00;;;23.00
20058;BMP180;10189;49.546;7.906;2023-07-20T08:08:50;98039.00;;;22.50
20058;BMP180;10189;49.546;7.906;2023-07-20T08:11:16;98034.00;;;23.10
20058;BMP180;10189;49.546;7.906;2023-07-20T08:13:43;98033.00;;;23.30
20058;BMP180;10189;49.546;7.906;2023-07-20T08:16:09;98033.00;;;23.60
20058;BMP180;10189;49.546;7.906;2023-07-20T08:18:35;98033.00;;;23.60
20058;BMP180;10189;49.546;7.906;2023-07-20T08:21:01;98032.00;;;23.70
20058;BMP180;10189;49.546;7.906;2023-07-20T08:23:27;98026.00;;;24.40
20058;BMP180;10189;49.546;7.906;2023-07-20T08:25:55;98034.00;;;24.00
20058;BMP180;10189;49.546;7.906;2023-07-20T08:28:21;98044.00;;;23.40
20058;BMP180;10189;49.546;7.906;2023-07-20T08:30:49;98040.00;;;23.60
20058;BMP180;10189;49.546;7.906;2023-07-20T08:33:17;98027.00;;;24.10
20058;BMP180;10189;49.546;7.906;2023-07-20T08:35:46;98027.00;;;24.40
20058;BMP180;10189;49.546;7.906;2023-07-20T08:38:12;98025.00;;;23.80
20058;BMP180;10189;49.546;7.906;2023-07-20T08:40:44;98021.00;;;23.90
20058;BMP180;10189;49.546;7.906;2023-07-20T08:43:11;98028.00;;;24.20
20058;BMP180;10189;49.546;7.906;2023-07-20T08:45:40;98028.00;;;24.40
20058;BMP180;10189;49.546;7.906;2023-07-20T08:48:07;98028.00;;;24.80
20058;BMP180;10189;49.546;7.906;2023-07-20T08:50:35;98030.00;;;25.00
20058;BMP180;10189;49.546;7.906;2023-07-20T08:53:02;98039.00;;;24.50
20058;BMP180;10189;49.546;7.906;2023-07-20T08:55:30;98030.00;;;23.90
20058;BMP180;10189;49.546;7.906;2023-07-20T08:57:58;98021.00;;;24.30
20058;BMP180;10189;49.546;7.906;2023-07-20T09:00:26;98022.00;;;24.90
20058;BMP180;10189;49.546;7.906;2023-07-20T09:02:54;98021.00;;;25.60
20058;BMP180;10189;49.546;7.906;2023-07-20T09:05:23;98009.00;;;25.40
20058;BMP180;10189;49.546;7.906;2023-07-20T09:07:52;98017.00;;;25.60
20058;BMP180;10189;49.546;7.906;2023-07-20T09:10:23;98017.00;;;25.60
20058;BMP180;10189;49.546;7.906;2023-07-20T09:12:49;98009.00;;;26.00
20058;BMP180;10189;49.546;7.906;2023-07-20T09:15:15;98023.00;;;25.50
20058;BMP180;10189;49.546;7.906;2023-07-20T09:17:47;98009.00;;;25.80
20058;BMP180;10189;49.546;7.906;2023-07-20T09:20:16;98017.00;;;26.30
20058;BMP180;10189;49.546;7.906;2023-07-20T09:22:43;98015.00;;;26.50
20058;BMP180;10189;49.546;7.906;2023-07-20T09:25:18;98021.00;;;26.40
20058;BMP180;10189;49.546;7.906;2023-07-20T09:27:49;98013.00;;;26.30
20058;BMP180;10189;49.546;7.906;2023-07-20T09:30:16;98021.00;;;26.40
20058;BMP180;10189;49.546;7.906;2023-07-20T09:32:46;98028.00;;;26.20
20058;BMP180;10189;49.546;7.906;2023-07-20T09:35:22;98017.00;;;25.20
20058;BMP180;10189;49.546;7.906;2023-07-20T09:37:59;98025.00;;;25.80
20058;BMP180;10189;49.546;7.906;2023-07-20T09:40:28;98015.00;;;26.00
20058;BMP180;10189;49.546;7.906;2023-07-20T09:42:55;98007.00;;;26.50
20058;BMP180;10189;49.546;7.906;2023-07-20T09:45:33;98018.00;;;26.00
20058;BMP180;10189;49.546;7.906;2023-07-20T09:48:06;98010.00;;;26.20
20058;BMP180;10189;49.546;7.906;2023-07-20T09:50:34;98009.00;;;26.40
20058;BMP180;10189;49.546;7.906;2023-07-20T09:53:01;98005.00;;;25.60
20058;BMP180;10189;49.546;7.906;2023-07-20T09:55:31;98009.00;;;25.40
20058;BMP180;10189;49.546;7.906;2023-07-20T09:57:59;97998.00;;;25.90
20058;BMP180;10189;49.546;7.906;2023-07-20T10:00:25;98004.00;;;25.80
20058;BMP180;10189;49.546;7.906;2023-07-20T10:02:53;98000.00;;;25.50
20058;BMP180;10189;49.546;7.906;2023-07-20T10:05:21;97998.00;;;25.60
20058;BMP180;10189;49.546;7.906;2023-07-20T10:07:50;97996.00;;;26.30
20058;BMP180;10189;49.546;7.906;2023-07-20T10:10:18;97997.00;;;26.90
20058;BMP180;10189;49.546;7.906;2023-07-20T10:12:49;97986.00;;;26.90
20058;BMP180;10189;49.546;7.906;2023-07-20T10:15:36;97989.00;;;27.00
20058;BMP180;10189;49.546;7.906;2023-07-20T10:18:11;97976.00;;;27.10
20058;BMP180;10189;49.546;7.906;2023-07-20T10:20:40;97994.00;;;27.60
20058;BMP180;10189;49.546;7.906;2023-07-20T10:23:07;97982.00;;;27.70
20058;BMP180;10189;49.546;7.906;2023-07-20T10:25:34;97986.00;;;27.50
20058;BMP180;10189;49.546;7.906;2023-07-20T10:28:06;97975.00;;;26.80
20058;BMP180;10189;49.546;7.906;2023-07-20T10:30:35;97986.00;;;26.80
20058;BMP180;10189;49.546;7.906;2023-07-20T10:33:03;97983.00;;;26.30
20058;BMP180;10189;49.546;7.906;2023-07-20T10:35:30;97979.00;;;26.70
20058;BMP180;10189;49.546;7.906;2023-07-20T10:38:03;97971.00;;;26.80
20058;BMP180;10189;49.546;7.906;2023-07-20T10:40:32;97970.00;;;26.80
20058;BMP180;10189;49.546;7.906;2023-07-20T10:43:04;97965.00;;;27.40
20058;BMP180;10189;49.546;7.906;2023-07-20T10:45:41;97961.00;;;27.20
20058;BMP180;10189;49.546;7.906;2023-07-20T10:48:23;97960.00;;;27.10
20058;BMP180;10189;49.546;7.906;2023-07-20T10:51:11;97959.00;;;26.10
20058;BMP180;10189;49.546;7.906;2023-07-20T10:53:40;97963.00;;;26.00
20058;BMP180;10189;49.546;7.906;2023-07-20T10:56:19;97960.00;;;26.40
20058;BMP180;10189;49.546;7.906;2023-07-20T10:58:45;97960.00;;;26.30
20058;BMP180;10189;49.546;7.906;2023-07-20T11:01:16;97968.00;;;26.00
20058;BMP180;10189;49.546;7.906;2023-07-20T11:03:49;97965.00;;;26.10
20058;BMP180;10189;49.546;7.906;2023-07-20T11:09:15;97953.00;;;27.10
20058;BMP180;10189;49.546;7.906;2023-07-20T11:11:47;97956.00;;;27.30
20058;BMP180;10189;49.546;7.906;2023-07-20T11:14:26;97959.00;;;27.50
20058;BMP180;10189;49.546;7.906;2023-07-20T11:16:53;97956.00;;;26.60
20058;BMP180;10189;49.546;7.906;2023-07-20T11:19:23;97955.00;;;26.90
20058;BMP180;10189;49.546;7.906;2023-07-20T11:21:57;97958.00;;;27.20
20058;BMP180;10189;49.546;7.906;2023-07-20T11:24:23;97947.00;;;26.80
20058;BMP180;10189;49.546;7.906;2023-07-20T11:26:52;97965.00;;;26.30
20058;BMP180;10189;49.546;7.906;2023-07-20T11:29:23;97950.00;;;26.00
20058;BMP180;10189;49.546;7.906;2023-07-20T11:31:51;97937.00;;;26.50
20058;BMP180;10189;49.546;7.906;2023-07-20T11:34:19;97950.00;;;26.30
20058;BMP180;10189;49.546;7.906;2023-07-20T11:36:51;97943.00;;;26.40
20058;BMP180;10189;49.546;7.906;2023-07-20T11:39:21;97951.00;;;25.60
20058;BMP180;10189;49.546;7.906;2023-07-20T11:41:51;97948.00;;;25.80
20058;BMP180;10189;49.546;7.906;2023-07-20T11:44:19;97949.00;;;25.60
20058;BMP180;10189;49.546;7.906;2023-07-20T11:46:46;97949.00;;;26.10
20058;BMP180;10189;49.546;7.906;2023-07-20T11:49:13;97949.00;;;25.80
20058;BMP180;10189;49.546;7.906;2023-07-20T11:51:40;97941.00;;;25.90
20058;BMP180;10189;49.546;7.906;2023-07-20T11:54:08;97948.00;;;26.00
20058;BMP180;10189;49.546;7.906;2023-07-20T11:56:35;97939.00;;;25.80
20058;BMP180;10189;49.546;7.906;2023-07-20T11:59:01;97935.00;;;26.10
20058;BMP180;10189;49.546;7.906;2023-07-20T12:01:29;97929.00;;;25.90
20058;BMP180;10189;49.546;7.906;2023-07-20T12:04:03;97929.00;;;26.00
20058;BMP180;10189;49.546;7.906;2023-07-20T12:06:30;97924.00;;;25.50
20058;BMP180;10189;49.546;7.906;2023-07-20T12:08:57;97917.00;;;26.00
20058;BMP180;10189;49.546;7.906;2023-07-20T12:11:51;97915.00;;;25.70
20058;BMP180;10189;49.546;7.906;2023-07-20T12:14:16;97921.00;;;26.10
20058;BMP180;10189;49.546;7.906;2023-07-20T12:16:43;97918.00;;;26.80
20058;BMP180;10189;49.546;7.906;2023-07-20T12:19:11;97922.00;;;26.80
20058;BMP180;10189;49.546;7.906;2023-07-20T12:21:42;97910.00;;;26.40
20058;BMP180;10189;49.546;7.906;2023-07-20T12:24:10;97913.00;;;26.60
20058;BMP180;10189;49.546;7.906;2023-07-20T12:26:36;97921.00;;;26.60
20058;BMP180;10189;49.546;7.906;2023-07-20T12:29:02;97911.00;;;26.20
20058;BMP180;10189;49.546;7.906;2023-07-20T12:31:30;97915.00;;;26.10
20058;BMP180;10189;49.546;7.906;2023-07-20T12:33:57;97915.00;;;26.70
20058;BMP180;10189;49.546;7.906;2023-07-20T12:36:24;97911.00;;;26.70
20058;BMP180;10189;49.546;7.906;2023-07-20T12:38:51;97913.00;;;26.60
20058;BMP180;10189;49.546;7.906;2023-07-20T12:41:16;97907.00;;;26.70
20058;BMP180;10189;49.546;7.906;2023-07-20T12:43:44;97906.00;;;26.60
20058;BMP180;10189;49.546;7.906;2023-07-20T12:46:12;97909.00;;;26.50
20058;BMP180;10189;49.546;7.906;2023-07-20T12:48:39;97908.00;;;26.60
20058;BMP180;10189;49.546;7.906;2023-07-20T12:51:08;97911.00;;;26.30
20058;BMP180;10189;49.546;7.906;2023-07-20T12:53:34;97896.00;;;26.30
20058;BMP180;10189;49.546;7.906;2023-07-20T12:56:01;97896.00;;;26.90
20058;BMP180;10189;49.546;7.906;2023-07-20T12:58:27;97891.00;;;27.30
20058;BMP180;10189;49.546;7.906;2023-07-20T13:00:53;97885.00;;;27.70
20058;BMP180;10189;49.546;7.906;2023-07-20T13:03:19;97879.00;;;27.90
20058;BMP180;10189;49.546;7.906;2023-07-20T13:05:46;97874.00;;;27.80
20058;BMP180;10189;49.546;7.906;2023-07-20T13:08:14;97879.00;;;27.80
20058;BMP180;10189;49.546;7.906;2023-07-20T13:10:40;97878.00;;;27.60
20058;BMP180;10189;49.546;7.906;2023-07-20T13:13:06;97875.00;;;27.20
20058;BMP180;10189;49.546;7.906;2023-07-20T13:15:42;97869.00;;;27.70
20058;BMP180;10189;49.546;7.906;2023-07-20T13:18:08;97867.00;;;27.50
20058;BMP180;10189;49.546;7.906;2023-07-20T13:20:34;97874.00;;;27.30
20058;BMP180;10189;49.546;7.906;2023-07-20T13:23:00;97864.00;;;27.40
20058;BMP180;10189;49.546;7.906;2023-07-20T13:25:25;97872.00;;;27.80
20058;BMP180;10189;49.546;7.906;2023-07-20T13:27:51;97874.00;;;27.10
20058;BMP180;10189;49.546;7.906;2023-07-20T13:30:17;97865.00;;;26.80
20058;BMP180;10189;49.546;7.906;2023-07-20T13:32:46;97866.00;;;27.10
20058;BMP180;10189;49.546;7.906;2023-07-20T13:35:12;97862.00;;;27.30
20058;BMP180;10189;49.546;7.906;2023-07-20T13:37:38;97856.00;;;27.60
20058;BMP180;10189;49.546;7.906;2023-07-20T13:40:05;97851.00;;;27.40
20058;BMP180;10189;49.546;7.906;2023-07-20T13:42:32;97850.00;;;27.30
20058;BMP180;10189;49.546;7.906;2023-07-20T13:44:58;97844.00;;;26.80
20058;BMP180;10189;49.546;7.906;2023-07-20T13:47:25;97857.00;;;26.50
20058;BMP180;10189;49.546;7.906;2023-07-20T13:49:51;97846.00;;;26.60
20058;BMP180;10189;49.546;7.906;2023-07-20T13:52:17;97852.00;;;26.50
20058;BMP180;10189;49.546;7.906;2023-07-20T13:54:43;97852.00;;;26.90
20058;BMP180;10189;49.546;7.906;2023-07-20T13:57:09;97837.00;;;26.50
20058;BMP180;10189;49.546;7.906;2023-07-20T13:59:35;97852.00;;;26.50
20058;BMP180;10189;49.546;7.906;2023-07-20T14:02:01;97847.00;;;27.20
20058;BMP180;10189;49.546;7.906;2023-07-20T14:04:27;97843.00;;;28.00
20058;BMP180;10189;49.546;7.906;2023-07-20T14:06:52;97843.00;;;27.80
20058;BMP180;10189;49.546;7.906;2023-07-20T14:09:18;97851.00;;;27.40
20058;BMP180;10189;49.546;7.906;2023-07-20T14:11:44;97846.00;;;27.20
20058;BMP180;10189;49.546;7.906;2023-07-20T14:14:11;97854.00;;;26.90
20058;BMP180;10189;49.546;7.906;2023-07-20T14:16:36;97844.00;;;26.80
20058;BMP180;10189;49.546;7.906;2023-07-20T14:19:02;97845.00;;;26.90